Bellemont, AZ

7:26 PM MST on April 18, 2015 (GMT -0700)
Bellemont, AZ | | Change Station
CLOSE
Current Station
Personal Weather Station
Location: Bellemont, AZ
Elevation: 7165 ft
Nearby Weather Stations

Elev 7165 ft 35.23 °N, 111.81 °W | Updated 33 seconds ago

Clear
Clear
47.5 °F
Feels Like 48 °F
N
0.0
Wind Variable Wind from NE
Gusts 1.0 mph

Today
High -- | Low -- °F
--% Chance of Precip.
Yesterday
High -- | Low -- °F
Precip. -- in
5:51 AM 7:02 PM
New Moon, 0% visible
Pressure 29.89 in
Visibility 10.0 miles
Clouds Clear
Windchill 48 °F
Dew Point 16 °F
Humidity 28%
Rainfall 0.00 in
Snow Depth Not available.
UV 0 out of 12
Pollen 9.60 out of 12
Air Quality Not available.
Flu Activity Local Activity
METAR KFLG 190157Z 33005KT 10SM CLR 13/M12 A3006 RMK AO2 SLP122 T01331117

More Conditions Fewer Conditions

Pressure 29.89 in
Visibility 10.0 miles
Clouds Clear
Windchill 48 °F
Dew Point 16 °F
Humidity 28%
Rainfall 0.00 in
Snow Depth Not available.
UV 0 out of 12
Pollen 9.60 out of 12
Air Quality Not available.
Flu Activity Local Activity
METAR KFLG 190157Z 33005KT 10SM CLR 13/M12 A3006 RMK AO2 SLP122 T01331117

More Conditions Fewer Conditions

10-Day Weather Forecast

Almanac

Astronomy

Apr. 18, 2015 Rise Set
Actual Time
Civil Twilight
Nautical Twilight
Astronomical Twilight
Moon
Length of Visible Light
Length of Day
Tomorrow will be .
, % of the Moon is Illuminated

Today's Extremes

State Highs State Lows

Community

WunderPhotos

Upload Photos

1,814,637 photos uploaded!

WunderBlogs® & News

Nearby

Air Quality

  Air Quality AQ Index Pollutant
Not available.

Snow Depth

Station Depth Elevation

Earthquake Activity

City Distance Mag. Time & Date
Minimum magnitude displayed is 2.5.

Coastal Water Temperatures

Place Temperature

Stations

Nearby Weather Stations

Station Location Temp. Windchill Dew Point Humidity Wind Precip. Elev Updated Type